Knoxville, TN (37998)

6:32 AM EDT on November 01, 2014 (GMT -0400)
Shenandoah | Change Station
CLOSE
Current Station
Personal Weather Station
Location: Seymour, TN
Elevation: 1076 ft
Nearby Weather Stations
Active Advisory: Freeze Warning

Elev 1076 ft 35.86 °N, 83.77 °W | Updated 3 seconds ago

Snow
Snow
35.4 °F
Feels Like 35 °F
N
1.6
Wind Variable Wind from North
Gusts 4.5 mph

Today
High -- | Low -- °F
--% Chance of Precip.
Yesterday
High -- | Low -- °F
Precip. -- in
7:57 AM 6:39 PM
Waxing Gibbous, 65% visible
Pressure 29.98 in
Visibility 9.0 miles
Clouds Few 500 ft
Scattered Clouds 2000 ft
Overcast 3500 ft
Windchill 35 °F
Dew Point 35 °F
Humidity 99%
Rainfall 0.00 in
Snow Depth Not available.
UV 0 out of 12
Pollen .10 out of 12
Air Quality Not available.
Flu Activity Not available.
METAR KTYS 010953Z 34005KT 9SM -SN FEW005 SCT020 OVC035 03/01 A2997 RMK AO2 SLP151 SNB30 P0000 T00280006

More Conditions Fewer Conditions

Pressure 29.98 in
Visibility 9.0 miles
Clouds Few 500 ft
Scattered Clouds 2000 ft
Overcast 3500 ft
Windchill 35 °F
Dew Point 35 °F
Humidity 99%
Rainfall 0.00 in
Snow Depth Not available.
UV 0 out of 12
Pollen .10 out of 12
Air Quality Not available.
Flu Activity Not available.
METAR KTYS 010953Z 34005KT 9SM -SN FEW005 SCT020 OVC035 03/01 A2997 RMK AO2 SLP151 SNB30 P0000 T00280006

More Conditions Fewer Conditions

10-Day Weather Forecast

Almanac

Astronomy

Nov. 01, 2014 Rise Set
Actual Time
Civil Twilight
Nautical Twilight
Astronomical Twilight
Moon
Length of Visible Light
Length of Day
Tomorrow will be .
, % of the Moon is Illuminated

Today's Extremes

State Highs State Lows

Community

WunderPhotos

Upload Photos

1,766,874 photos uploaded!

WunderBlogs® & News

Nearby

Air Quality

  Air Quality AQ Index Pollutant
Not available.

Snow Depth

Station Depth Elevation

Earthquake Activity

City Distance Mag. Time & Date
Minimum magnitude displayed is 2.5.

Coastal Water Temperatures

Place Temperature

Nearby Weather Stations